createdAt,value
2018-01-26T00:00:12.502Z,9.40
2018-01-26T00:02:40.020Z,9.30
2018-01-26T00:05:07.538Z,9.30
2018-01-26T00:07:35.025Z,9.30
2018-01-26T00:10:02.729Z,9.40
2018-01-26T00:12:30.999Z,9.40
2018-01-26T00:14:59.340Z,9.40
2018-01-26T00:17:26.847Z,9.40
2018-01-26T00:19:55.111Z,9.30
2018-01-26T00:22:22.633Z,9.30
2018-01-26T00:24:50.167Z,9.40
2018-01-26T00:27:18.448Z,9.40
2018-01-26T00:29:46.720Z,9.40
2018-01-26T00:32:14.995Z,9.30
2018-01-26T00:34:43.372Z,9.30
2018-01-26T00:37:10.968Z,9.30
2018-01-26T00:39:39.517Z,9.20
2018-01-26T00:42:07.205Z,9.20
2018-01-26T00:44:34.920Z,9.20
2018-01-26T00:47:02.460Z,9.20
2018-01-26T00:49:31.069Z,9.20
2018-01-26T00:51:58.601Z,9.20
2018-01-26T00:54:26.878Z,9.20
2018-01-26T00:56:54.404Z,9.20
2018-01-26T00:59:21.930Z,9.20
2018-01-26T01:01:49.451Z,9.20
2018-01-26T01:04:18.320Z,9.10
2018-01-26T01:06:45.932Z,9.10
2018-01-26T01:09:13.430Z,9.10
2018-01-26T01:11:40.945Z,9.10
2018-01-26T01:14:09.222Z,9.10
2018-01-26T01:16:38.161Z,9.00
2018-01-26T01:19:05.656Z,9.00
2018-01-26T01:21:33.167Z,9.00
2018-01-26T01:24:00.660Z,9.00
2018-01-26T01:26:28.183Z,9.00
2018-01-26T01:28:56.438Z,9.00
2018-01-26T01:31:23.955Z,9.00
2018-01-26T01:33:51.587Z,9.00
2018-01-26T01:36:19.854Z,9.00
2018-01-26T01:38:48.097Z,8.90
2018-01-26T01:41:15.608Z,8.90
2018-01-26T01:43:43.906Z,8.90
2018-01-26T01:46:11.424Z,8.90
2018-01-26T01:48:38.914Z,8.90
2018-01-26T01:51:07.183Z,8.90
2018-01-26T01:53:35.509Z,9.00
2018-01-26T01:56:03.003Z,8.90
2018-01-26T01:58:30.948Z,8.90
2018-01-26T02:00:58.452Z,8.90
2018-01-26T02:03:25.954Z,8.90
2018-01-26T02:05:54.286Z,8.90
2018-01-26T02:08:21.792Z,8.90
2018-01-26T02:10:50.037Z,8.90
2018-01-26T02:13:18.219Z,8.90
2018-01-26T02:15:45.800Z,8.90
2018-01-26T02:18:14.073Z,8.90
2018-01-26T02:20:41.606Z,8.90
2018-01-26T02:23:09.143Z,9.00
2018-01-26T02:25:36.639Z,9.10
2018-01-26T02:28:04.960Z,9.10
2018-01-26T02:30:33.230Z,9.00
2018-01-26T02:33:01.510Z,9.00
2018-01-26T02:35:29.776Z,9.00
2018-01-26T02:37:57.296Z,8.90
2018-01-26T02:40:24.833Z,8.90
2018-01-26T02:42:53.105Z,8.90
2018-01-26T02:45:21.378Z,9.00
2018-01-26T02:47:49.655Z,8.90
2018-01-26T02:50:17.388Z,8.90
2018-01-26T02:52:44.908Z,8.90
2018-01-26T02:55:13.180Z,8.80
2018-01-26T02:57:41.457Z,8.80
2018-01-26T03:00:09.703Z,8.90
2018-01-26T03:02:37.192Z,8.80
2018-01-26T03:05:05.478Z,8.90
2018-01-26T03:07:32.997Z,8.90
2018-01-26T03:10:00.488Z,8.80
2018-01-26T03:12:28.014Z,8.80
2018-01-26T03:14:55.539Z,8.80
2018-01-26T03:17:23.814Z,8.80
2018-01-26T03:19:52.122Z,8.80
2018-01-26T03:22:19.615Z,8.80
2018-01-26T03:24:47.105Z,8.70
2018-01-26T03:27:14.620Z,8.70
2018-01-26T03:29:42.154Z,8.70
2018-01-26T03:32:10.416Z,8.70
2018-01-26T03:34:37.889Z,8.70
2018-01-26T03:37:05.482Z,8.70
2018-01-26T03:39:32.986Z,8.80
2018-01-26T03:42:00.476Z,8.80
2018-01-26T03:44:30.485Z,8.60
2018-01-26T03:46:58.004Z,8.60
2018-01-26T03:49:25.631Z,8.60
2018-01-26T03:51:53.912Z,8.60
2018-01-26T03:54:22.200Z,8.70
2018-01-26T03:56:50.472Z,8.80
2018-01-26T03:59:17.987Z,8.80
2018-01-26T04:01:45.492Z,8.80
2018-01-26T04:04:13.759Z,8.80
2018-01-26T04:06:41.243Z,8.80
2018-01-26T04:09:09.519Z,8.80
2018-01-26T04:11:37.801Z,8.70
2018-01-26T04:14:06.071Z,8.60
2018-01-26T04:16:33.816Z,8.60
2018-01-26T04:19:01.310Z,8.60
2018-01-26T04:21:28.794Z,8.60
2018-01-26T04:23:57.060Z,8.60
2018-01-26T04:26:25.364Z,8.70
2018-01-26T04:28:52.866Z,8.70
2018-01-26T04:31:20.384Z,8.70
2018-01-26T04:33:47.920Z,8.70
2018-01-26T04:36:15.408Z,8.70
2018-01-26T04:38:43.675Z,8.70
2018-01-26T04:41:11.926Z,8.70
2018-01-26T04:43:39.425Z,8.70
2018-01-26T04:46:07.668Z,8.70
2018-01-26T04:48:35.168Z,8.70
2018-01-26T04:51:03.455Z,8.60
2018-01-26T04:53:31.744Z,8.60
2018-01-26T04:55:59.997Z,8.50
2018-01-26T04:58:28.292Z,8.50
2018-01-26T05:00:56.557Z,8.60
2018-01-26T05:03:24.826Z,8.60
2018-01-26T05:05:52.302Z,8.60
2018-01-26T05:08:19.808Z,8.60
2018-01-26T05:10:48.294Z,8.60
2018-01-26T05:13:15.796Z,8.50
2018-01-26T05:15:43.288Z,8.50
2018-01-26T05:18:11.559Z,8.30
2018-01-26T05:20:39.848Z,8.30
2018-01-26T05:23:07.332Z,8.30
2018-01-26T05:25:34.859Z,8.40
2018-01-26T05:28:02.371Z,8.30
2018-01-26T05:30:29.892Z,8.20
2018-01-26T05:32:57.428Z,8.20
2018-01-26T05:35:24.924Z,8.20
2018-01-26T05:37:53.189Z,8.20
2018-01-26T05:40:20.694Z,8.10
2018-01-26T05:42:48.241Z,8.20
2018-01-26T05:45:16.520Z,8.20
2018-01-26T05:47:44.790Z,8.20
2018-01-26T05:50:13.068Z,8.10
2018-01-26T05:52:41.342Z,8.00
2018-01-26T05:55:08.848Z,8.00
2018-01-26T05:57:36.343Z,8.00
2018-01-26T06:00:03.857Z,7.90
2018-01-26T06:02:32.215Z,7.80
2018-01-26T06:05:00.061Z,7.80
2018-01-26T06:07:27.593Z,7.80
2018-01-26T06:09:55.092Z,7.90
2018-01-26T06:12:22.598Z,7.80
2018-01-26T06:14:50.874Z,7.80
2018-01-26T06:17:19.168Z,7.90
2018-01-26T06:19:46.680Z,7.90
2018-01-26T06:22:14.238Z,7.80
2018-01-26T06:24:41.770Z,7.80
2018-01-26T06:27:09.287Z,7.80
2018-01-26T06:29:36.801Z,7.80
2018-01-26T06:32:04.302Z,7.80
2018-01-26T06:34:31.811Z,7.80
2018-01-26T06:37:00.073Z,7.80
2018-01-26T06:39:28.349Z,7.80
2018-01-26T06:41:56.627Z,7.80
2018-01-26T06:44:24.901Z,7.80
2018-01-26T06:46:53.195Z,7.70
2018-01-26T06:49:21.709Z,7.80
2018-01-26T06:51:49.248Z,7.80
2018-01-26T06:54:17.525Z,7.70
2018-01-26T06:56:45.805Z,7.60
2018-01-26T06:59:14.062Z,7.60
2018-01-26T07:01:41.594Z,7.60
2018-01-26T07:04:09.087Z,7.60
2018-01-26T07:06:36.697Z,7.60
2018-01-26T07:09:04.217Z,7.60
2018-01-26T07:11:31.749Z,7.50
2018-01-26T07:13:59.260Z,7.50
2018-01-26T07:16:26.833Z,7.60
2018-01-26T07:18:55.131Z,7.60
2018-01-26T07:21:22.666Z,7.60
2018-01-26T07:23:50.938Z,7.30
2018-01-26T07:26:18.461Z,7.30
2018-01-26T07:28:45.959Z,7.20
2018-01-26T07:31:13.478Z,7.20
2018-01-26T07:33:40.963Z,7.20
2018-01-26T07:36:08.468Z,7.20
2018-01-26T07:38:35.947Z,7.30
2018-01-26T07:41:03.490Z,7.30
2018-01-26T07:43:31.040Z,7.30
2018-01-26T07:45:58.537Z,7.40
2018-01-26T07:48:26.809Z,7.40
2018-01-26T07:50:55.087Z,7.40
2018-01-26T07:53:23.354Z,7.50
2018-01-26T07:55:50.876Z,7.40
2018-01-26T07:58:18.379Z,7.50
2018-01-26T08:00:45.896Z,7.50
2018-01-26T08:03:13.406Z,7.50
2018-01-26T08:05:40.928Z,7.50
2018-01-26T08:08:08.437Z,7.50
2018-01-26T08:10:35.944Z,7.40
2018-01-26T08:13:03.453Z,7.40
2018-01-26T08:15:30.955Z,7.40
2018-01-26T08:17:59.229Z,7.40
2018-01-26T08:20:27.483Z,7.50
2018-01-26T08:22:55.002Z,7.40
2018-01-26T08:25:22.515Z,7.50
2018-01-26T08:27:50.031Z,7.50
2018-01-26T08:30:17.580Z,7.60
2018-01-26T08:32:45.067Z,7.60
2018-01-26T08:35:12.565Z,7.60
2018-01-26T08:37:40.088Z,7.60
2018-01-26T08:40:07.600Z,7.60
2018-01-26T08:42:35.176Z,7.60
2018-01-26T08:45:03.438Z,7.60
2018-01-26T08:47:31.118Z,7.50
2018-01-26T08:49:59.448Z,7.50
2018-01-26T08:52:26.982Z,7.50
2018-01-26T08:54:55.232Z,7.60
2018-01-26T08:57:23.516Z,7.70
2018-01-26T08:59:51.019Z,7.60
2018-01-26T09:02:18.530Z,7.70
2018-01-26T09:04:46.049Z,7.60
2018-01-26T09:07:13.576Z,7.60
2018-01-26T09:09:41.856Z,7.70
2018-01-26T09:12:10.131Z,7.60
2018-01-26T09:14:38.440Z,7.70
2018-01-26T09:17:06.069Z,7.70
2018-01-26T09:19:33.596Z,7.70
2018-01-26T09:22:01.117Z,7.70
2018-01-26T09:24:29.402Z,7.70
2018-01-26T09:26:57.676Z,7.80
2018-01-26T09:29:25.967Z,7.90
2018-01-26T09:31:54.236Z,8.00
2018-01-26T09:34:21.779Z,8.00
2018-01-26T09:36:49.310Z,8.10
2018-01-26T09:39:17.720Z,8.10
2018-01-26T09:41:45.214Z,8.10
2018-01-26T09:44:13.492Z,8.20
2018-01-26T09:46:41.770Z,8.30
2018-01-26T09:49:10.046Z,8.30
2018-01-26T09:51:37.570Z,8.20
2018-01-26T09:54:05.125Z,8.30
2018-01-26T09:56:32.647Z,8.20
2018-01-26T09:59:00.945Z,8.10
2018-01-26T10:01:29.242Z,8.10
2018-01-26T10:03:56.764Z,8.10
2018-01-26T10:06:24.432Z,8.00
2018-01-26T10:08:51.949Z,8.00
2018-01-26T10:11:19.443Z,8.10
2018-01-26T10:13:46.974Z,8.10
2018-01-26T10:16:14.493Z,8.10
2018-01-26T10:18:42.776Z,8.20
2018-01-26T10:21:11.050Z,8.30
2018-01-26T10:23:39.325Z,8.30
2018-01-26T10:26:06.812Z,8.30
2018-01-26T10:28:34.312Z,8.40
2018-01-26T10:31:01.816Z,8.40
2018-01-26T10:33:30.114Z,8.30
2018-01-26T10:35:58.385Z,8.30
2018-01-26T10:38:26.669Z,8.30
2018-01-26T10:40:54.949Z,8.20
2018-01-26T10:43:23.225Z,8.20
2018-01-26T10:45:51.500Z,8.20
2018-01-26T10:48:19.026Z,8.20
2018-01-26T10:50:47.343Z,8.20
2018-01-26T10:53:15.640Z,8.20
2018-01-26T10:55:43.938Z,8.20
2018-01-26T10:58:11.429Z,8.20
2018-01-26T11:00:38.929Z,8.20
2018-01-26T11:03:06.963Z,8.20
2018-01-26T11:05:34.519Z,8.20
2018-01-26T11:08:02.750Z,8.20
2018-01-26T11:10:31.061Z,8.30
2018-01-26T11:12:58.555Z,8.30
2018-01-26T11:15:26.148Z,8.40
2018-01-26T11:17:53.654Z,8.40
2018-01-26T11:20:21.190Z,8.40
2018-01-26T11:22:48.685Z,8.40
2018-01-26T11:25:16.217Z,8.50
2018-01-26T11:27:43.812Z,8.50
2018-01-26T11:30:11.332Z,8.50
2018-01-26T11:32:39.627Z,8.50
2018-01-26T11:35:07.915Z,8.50
2018-01-26T11:37:36.270Z,8.50
2018-01-26T11:40:03.795Z,8.50
2018-01-26T11:42:31.352Z,8.60
2018-01-26T11:44:58.869Z,8.60
2018-01-26T11:47:26.365Z,8.60
2018-01-26T11:49:54.641Z,8.60
2018-01-26T11:52:22.904Z,8.60
2018-01-26T11:54:50.404Z,8.60
2018-01-26T11:57:17.894Z,8.70
2018-01-26T11:59:45.444Z,8.80
2018-01-26T12:02:12.979Z,8.90
2018-01-26T12:04:41.332Z,9.00
2018-01-26T12:07:08.871Z,9.00
2018-01-26T12:09:36.389Z,9.10
2018-01-26T12:12:04.653Z,9.30
2018-01-26T12:14:33.022Z,9.40
2018-01-26T12:17:00.522Z,9.40
2018-01-26T12:19:28.060Z,9.50
2018-01-26T12:21:56.344Z,9.60
2018-01-26T12:24:23.849Z,9.60
2018-01-26T12:26:51.353Z,9.60
2018-01-26T12:29:19.194Z,9.70
2018-01-26T12:31:47.460Z,9.70
2018-01-26T12:34:14.970Z,9.70
2018-01-26T12:36:42.465Z,9.70
2018-01-26T12:39:11.525Z,9.60
2018-01-26T12:41:39.733Z,9.60
2018-01-26T12:44:08.043Z,9.50
2018-01-26T12:46:35.570Z,9.50
2018-01-26T12:49:03.884Z,9.20
2018-01-26T12:51:31.406Z,9.20
2018-01-26T12:53:59.126Z,9.20
2018-01-26T12:56:26.637Z,9.20
2018-01-26T12:58:54.145Z,9.10
2018-01-26T13:01:21.654Z,9.20
2018-01-26T13:03:49.201Z,9.30
2018-01-26T13:06:16.765Z,9.20
2018-01-26T13:08:44.289Z,9.20
2018-01-26T13:11:11.815Z,9.30
2018-01-26T13:13:39.331Z,9.40
2018-01-26T13:16:06.834Z,9.40
2018-01-26T13:18:34.352Z,9.30
2018-01-26T13:21:01.841Z,9.30
2018-01-26T13:23:29.330Z,9.20
2018-01-26T13:25:57.724Z,9.30
2018-01-26T13:28:25.987Z,9.20
2018-01-26T13:30:53.496Z,9.20
2018-01-26T13:33:21.000Z,9.20
2018-01-26T13:35:48.541Z,9.20
2018-01-26T13:38:16.027Z,9.20
2018-01-26T13:40:43.536Z,9.20
2018-01-26T13:43:11.821Z,9.20
2018-01-26T13:45:40.797Z,9.20
2018-01-26T13:48:09.081Z,9.20
2018-01-26T13:50:37.348Z,9.10
2018-01-26T13:53:04.863Z,9.10
2018-01-26T13:55:32.372Z,9.20
2018-01-26T13:58:00.008Z,9.20
2018-01-26T14:00:27.561Z,9.10
2018-01-26T14:02:55.837Z,9.00
2018-01-26T14:05:23.426Z,9.00
2018-01-26T14:07:50.930Z,8.90
2018-01-26T14:10:19.208Z,8.90
2018-01-26T14:12:47.509Z,9.00
2018-01-26T14:15:14.993Z,8.90
2018-01-26T14:17:42.528Z,9.10
2018-01-26T14:20:10.809Z,9.30
2018-01-26T14:22:39.081Z,9.30
2018-01-26T14:25:07.353Z,9.30
2018-01-26T14:27:35.632Z,9.40
2018-01-26T14:30:03.133Z,9.40
2018-01-26T14:32:30.634Z,9.40
2018-01-26T14:34:58.173Z,9.40
2018-01-26T14:37:25.780Z,9.40
2018-01-26T14:39:53.399Z,9.40
2018-01-26T14:42:21.002Z,9.40
2018-01-26T14:44:49.904Z,9.40
2018-01-26T14:47:17.407Z,9.40
2018-01-26T14:49:44.981Z,9.30
2018-01-26T14:52:12.499Z,9.30
2018-01-26T14:54:40.021Z,9.20
2018-01-26T14:57:07.545Z,9.20
2018-01-26T14:59:36.437Z,9.20
2018-01-26T15:02:04.743Z,9.20
2018-01-26T15:04:33.473Z,9.20
2018-01-26T15:07:00.995Z,9.20
2018-01-26T15:09:28.509Z,9.20
2018-01-26T15:11:56.103Z,9.20
2018-01-26T15:14:24.484Z,9.20
2018-01-26T15:16:52.768Z,9.20
2018-01-26T15:19:21.104Z,9.10
2018-01-26T15:21:48.869Z,9.10
2018-01-26T15:24:16.393Z,9.10
2018-01-26T15:26:43.917Z,9.10
2018-01-26T15:29:11.450Z,9.10
2018-01-26T15:31:38.960Z,9.00
2018-01-26T15:34:07.262Z,9.00
2018-01-26T15:36:35.516Z,9.00
2018-01-26T15:39:03.825Z,9.00
2018-01-26T15:41:31.331Z,9.00
2018-01-26T15:43:58.852Z,9.00
2018-01-26T15:46:27.108Z,9.00
2018-01-26T15:48:54.596Z,9.00
2018-01-26T15:51:22.104Z,9.00
2018-01-26T15:53:49.607Z,9.00
2018-01-26T15:56:17.864Z,8.90
2018-01-26T15:58:45.389Z,8.90
2018-01-26T16:01:12.880Z,8.80
2018-01-26T16:03:40.406Z,8.80
2018-01-26T16:06:07.928Z,8.80
2018-01-26T16:08:35.499Z,8.80
2018-01-26T16:11:03.119Z,8.90
2018-01-26T16:13:30.642Z,8.80
2018-01-26T16:16:05.027Z,8.90
2018-01-26T16:18:32.559Z,8.80
2018-01-26T16:21:02.980Z,8.90
2018-01-26T16:23:30.497Z,8.80
2018-01-26T16:25:58.051Z,8.80
2018-01-26T16:28:25.580Z,8.80
2018-01-26T16:30:53.115Z,8.80
2018-01-26T16:33:21.869Z,8.80
2018-01-26T16:35:49.392Z,8.80
2018-01-26T16:38:17.280Z,8.80
2018-01-26T16:40:44.926Z,8.70
2018-01-26T16:43:12.446Z,8.70
2018-01-26T16:45:40.476Z,8.70
2018-01-26T16:48:08.017Z,8.80
2018-01-26T16:50:36.542Z,8.70
2018-01-26T16:53:04.076Z,8.70
2018-01-26T16:55:31.644Z,8.80
2018-01-26T16:57:59.177Z,8.80
2018-01-26T17:00:27.554Z,8.80
2018-01-26T17:02:55.834Z,8.80
2018-01-26T17:05:24.111Z,8.80
2018-01-26T17:07:51.669Z,8.80
2018-01-26T17:10:19.200Z,8.90
2018-01-26T17:12:46.724Z,8.90
2018-01-26T17:15:15.000Z,8.80
2018-01-26T17:17:43.274Z,8.80
2018-01-26T17:20:11.604Z,8.80
2018-01-26T17:22:39.100Z,8.80
2018-01-26T17:25:06.629Z,8.80
2018-01-26T17:27:34.136Z,8.80
2018-01-26T17:30:01.690Z,8.70
2018-01-26T17:32:29.974Z,8.60
2018-01-26T17:34:57.487Z,8.60
2018-01-26T17:37:24.988Z,8.70
2018-01-26T17:39:52.516Z,8.70
2018-01-26T17:42:20.016Z,8.70
2018-01-26T17:44:47.539Z,8.60
2018-01-26T17:47:15.036Z,8.60
2018-01-26T17:49:42.626Z,8.60
2018-01-26T17:52:10.500Z,8.60
2018-01-26T17:54:38.777Z,8.70
2018-01-26T17:57:06.964Z,8.70
2018-01-26T17:59:35.230Z,8.70
2018-01-26T18:02:02.750Z,8.70
2018-01-26T18:04:30.265Z,8.60
2018-01-26T18:06:58.556Z,8.60
2018-01-26T18:09:26.852Z,8.60
2018-01-26T18:11:54.364Z,8.60
2018-01-26T18:14:21.871Z,8.60
2018-01-26T18:16:50.151Z,8.60
2018-01-26T18:19:18.421Z,8.60
2018-01-26T18:21:46.722Z,8.70
2018-01-26T18:24:14.974Z,8.60
2018-01-26T18:26:43.260Z,8.70
2018-01-26T18:29:11.527Z,8.70
2018-01-26T18:31:39.061Z,8.70
2018-01-26T18:34:06.608Z,8.70
2018-01-26T18:36:34.132Z,8.70
2018-01-26T18:39:02.412Z,8.60
2018-01-26T18:41:29.954Z,8.60
2018-01-26T18:43:57.499Z,8.60
2018-01-26T18:46:25.199Z,8.70
2018-01-26T18:48:52.692Z,8.60
2018-01-26T18:51:20.227Z,8.60
2018-01-26T18:53:47.764Z,8.60
2018-01-26T18:56:15.306Z,8.60
2018-01-26T18:58:42.834Z,8.60
2018-01-26T19:01:11.141Z,8.50
2018-01-26T19:03:38.650Z,8.50
2018-01-26T19:06:06.228Z,8.40
2018-01-26T19:08:33.737Z,8.40
2018-01-26T19:11:01.948Z,8.40
2018-01-26T19:13:29.507Z,8.40
2018-01-26T19:15:57.031Z,8.40
2018-01-26T19:18:24.610Z,8.40
2018-01-26T19:20:52.149Z,8.40
2018-01-26T19:23:20.426Z,8.30
2018-01-26T19:25:48.698Z,8.30
2018-01-26T19:28:16.281Z,8.30
2018-01-26T19:30:44.648Z,8.40
2018-01-26T19:33:12.956Z,8.40
2018-01-26T19:35:40.674Z,8.40
2018-01-26T19:38:08.273Z,8.40
2018-01-26T19:40:36.598Z,8.40
2018-01-26T19:43:04.152Z,8.40
2018-01-26T19:45:31.703Z,8.40
2018-01-26T19:47:59.252Z,8.40
2018-01-26T19:50:26.787Z,8.40
2018-01-26T19:52:54.317Z,8.40
2018-01-26T19:55:21.820Z,8.40
2018-01-26T19:57:49.469Z,8.40
2018-01-26T20:00:17.019Z,8.40
2018-01-26T20:02:44.592Z,8.40
2018-01-26T20:05:29.752Z,8.40
2018-01-26T20:08:01.248Z,8.40
2018-01-26T20:10:29.693Z,8.40
2018-01-26T20:13:03.012Z,8.40
2018-01-26T20:15:30.506Z,8.50
2018-01-26T20:17:58.041Z,8.50
2018-01-26T20:20:25.560Z,8.50
2018-01-26T20:22:53.084Z,8.40
2018-01-26T20:25:21.394Z,8.40
2018-01-26T20:27:48.919Z,8.40
2018-01-26T20:30:17.358Z,8.40
2018-01-26T20:32:45.397Z,8.40
2018-01-26T20:35:13.755Z,8.30
2018-01-26T20:37:41.300Z,8.30
2018-01-26T20:40:08.824Z,8.30
2018-01-26T20:42:36.588Z,8.30
2018-01-26T20:45:04.134Z,8.30
2018-01-26T20:47:32.443Z,8.30
2018-01-26T20:50:00.009Z,8.30
2018-01-26T20:52:27.543Z,8.30
2018-01-26T20:54:55.821Z,8.30
2018-01-26T20:57:24.098Z,8.30
2018-01-26T20:59:52.472Z,8.30
2018-01-26T21:02:20.006Z,8.30
2018-01-26T21:04:48.445Z,8.30
2018-01-26T21:07:16.327Z,8.30
2018-01-26T21:09:44.413Z,8.20
2018-01-26T21:12:11.927Z,8.20
2018-01-26T21:14:40.234Z,8.30
2018-01-26T21:17:08.521Z,8.30
2018-01-26T21:19:36.104Z,8.30
2018-01-26T21:22:03.625Z,8.30
2018-01-26T21:24:32.223Z,8.40
2018-01-26T21:27:01.293Z,8.40
2018-01-26T21:29:28.798Z,8.40
2018-01-26T21:31:58.482Z,8.40
2018-01-26T21:34:25.976Z,8.50
2018-01-26T21:36:53.481Z,8.40
2018-01-26T21:39:21.439Z,8.40
2018-01-26T21:41:49.077Z,8.40
2018-01-26T21:44:16.702Z,8.40
2018-01-26T21:46:44.260Z,8.30
2018-01-26T21:49:11.756Z,8.30
2018-01-26T21:51:40.809Z,8.30
2018-01-26T21:54:08.311Z,8.30
2018-01-26T21:56:36.571Z,8.30
2018-01-26T21:59:04.143Z,8.30
2018-01-26T22:01:31.663Z,8.30
2018-01-26T22:03:59.237Z,8.30
2018-01-26T22:06:32.353Z,8.30
2018-01-26T22:08:59.939Z,8.30
2018-01-26T22:11:28.266Z,8.30
2018-01-26T22:13:55.753Z,8.30
2018-01-26T22:16:23.320Z,8.40
2018-01-26T22:18:50.886Z,8.40
2018-01-26T22:21:18.532Z,8.40
2018-01-26T22:23:46.293Z,8.40
2018-01-26T22:26:13.818Z,8.40
2018-01-26T22:28:42.081Z,8.50
2018-01-26T22:31:09.645Z,8.40
2018-01-26T22:33:37.137Z,8.50
2018-01-26T22:36:04.673Z,8.40
2018-01-26T22:38:32.214Z,8.30
2018-01-26T22:40:59.742Z,8.30
2018-01-26T22:43:27.303Z,8.30
2018-01-26T22:45:54.830Z,8.20
2018-01-26T22:48:23.122Z,8.20
2018-01-26T22:50:51.399Z,8.20
2018-01-26T22:53:19.767Z,8.20
2018-01-26T22:55:47.406Z,8.20
2018-01-26T22:58:15.387Z,8.30
2018-01-26T23:00:42.912Z,8.20
2018-01-26T23:03:10.425Z,8.20
2018-01-26T23:05:37.931Z,8.20
2018-01-26T23:08:07.149Z,8.30
2018-01-26T23:10:34.846Z,8.30
2018-01-26T23:13:03.611Z,8.30
2018-01-26T23:15:31.203Z,8.30
2018-01-26T23:17:59.656Z,8.40
2018-01-26T23:20:27.339Z,8.30
2018-01-26T23:22:54.942Z,8.30
2018-01-26T23:25:24.393Z,8.30
2018-01-26T23:27:51.940Z,8.30
2018-01-26T23:30:20.293Z,8.30
2018-01-26T23:32:48.596Z,8.30
2018-01-26T23:35:16.902Z,8.30
2018-01-26T23:37:46.783Z,8.20
2018-01-26T23:40:16.089Z,8.30
2018-01-26T23:42:43.575Z,8.30
2018-01-26T23:45:11.123Z,8.30
2018-01-26T23:47:39.458Z,8.30
2018-01-26T23:50:07.051Z,8.30
2018-01-26T23:52:34.669Z,8.30
2018-01-26T23:55:02.187Z,8.30
2018-01-26T23:57:29.868Z,8.30
2018-01-26T23:59:58.582Z,8.30
